Time;durP1;ratioP1;P1;durP2;ratioP2;P2;SDS_P1;SDS_P2;PMS_P1;PMS_P2;Temp;Humidity;BMP_temperature;BMP_pressure;BME280_temperature;BME280_humidity;BME280_pressure;Samples;Min_cycle;Max_cycle;Signal;HPM_P1;HPM_P2
2024/01/04 00:01:34;;;;;;;9.15;1.88;;;;;;;10.71;61.74;97907.88;5011235;28;97387;-77
2024/01/04 00:03:59;;;;;;;3.13;1.65;;;;;;;10.74;61.46;97919.94;4993079;28;97160;-76
2024/01/04 00:06:25;;;;;;;2.50;1.45;;;;;;;10.73;61.87;97921.69;5025586;27;96825;-76
2024/01/04 00:08:50;;;;;;;3.05;1.45;;;;;;;10.77;61.51;97912.66;5006181;28;100831;-79
2024/01/04 00:11:16;;;;;;;3.40;1.63;;;;;;;10.78;61.11;97918.75;5012789;28;98404;-79
2024/01/04 00:13:41;;;;;;;3.10;1.30;;;;;;;10.74;61.69;97922.56;5045690;27;98018;-77
2024/01/04 00:16:10;;;;;;;4.50;1.80;;;;;;;10.70;61.94;97921.09;5002325;28;96868;-77
2024/01/04 00:18:36;;;;;;;3.08;1.50;;;;;;;10.73;61.63;97919.06;4986627;28;101683;-78
2024/01/04 00:21:02;;;;;;;2.58;1.25;;;;;;;10.71;61.73;97912.28;4992353;28;100880;-77
2024/01/04 00:23:28;;;;;;;2.22;1.23;;;;;;;10.58;62.28;97914.94;5017451;28;97680;-77
2024/01/04 00:25:54;;;;;;;2.30;1.17;;;;;;;10.49;62.33;97905.94;5012759;28;96743;-76
2024/01/04 00:28:19;;;;;;;4.72;1.27;;;;;;;10.51;62.22;97901.44;5037491;27;97748;-76
2024/01/04 00:30:45;;;;;;;2.20;1.40;;;;;;;10.68;62.24;97926.47;4994541;28;101505;-76
2024/01/04 00:33:10;;;;;;;2.45;1.52;;;;;;;10.72;62.03;97924.44;5010453;28;96739;-76
2024/01/04 00:35:36;;;;;;;4.25;2.15;;;;;;;10.73;61.92;97923.50;5010156;28;97202;-81
2024/01/04 00:38:01;;;;;;;5.78;2.22;;;;;;;10.65;62.23;97918.81;4992268;28;101003;-77
2024/01/04 00:40:30;;;;;;;4.10;2.05;;;;;;;10.69;62.28;97920.25;5000111;28;97385;-77
2024/01/04 00:42:57;;;;;;;3.28;1.70;;;;;;;10.73;62.12;97923.50;5026450;28;96820;-77
2024/01/04 00:45:23;;;;;;;3.33;1.50;;;;;;;10.69;62.01;97916.81;4993082;28;96830;-77
2024/01/04 00:47:48;;;;;;;3.28;1.63;;;;;;;10.73;62.14;97919.06;4985411;28;101513;-76
2024/01/04 00:50:14;;;;;;;3.47;1.83;;;;;;;10.70;62.68;97921.91;4989641;28;99468;-77
2024/01/04 00:52:39;;;;;;;4.50;1.70;;;;;;;10.75;62.46;97919.81;5011118;27;96788;-76
2024/01/04 00:55:05;;;;;;;3.55;1.75;;;;;;;10.75;62.33;97913.72;5018309;28;97394;-78
2024/01/04 00:57:31;;;;;;;3.42;1.83;;;;;;;10.73;62.62;97918.25;5013265;28;98003;-79
2024/01/04 00:59:56;;;;;;;3.63;1.42;;;;;;;10.64;63.01;97923.19;4996159;28;101360;-78
2024/01/04 01:02:22;;;;;;;2.65;1.40;;;;;;;10.68;62.83;97920.38;4991484;28;96824;-77
2024/01/04 01:04:47;;;;;;;2.58;1.48;;;;;;;10.60;62.88;97905.19;4983654;28;96869;-76
2024/01/04 01:07:12;;;;;;;3.00;1.50;;;;;;;10.67;62.65;97897.69;4997692;28;101165;-76
2024/01/04 01:09:38;;;;;;;2.80;1.50;;;;;;;10.77;62.77;97912.66;4994851;28;97827;-76
2024/01/04 01:12:04;;;;;;;2.65;1.27;;;;;;;10.63;63.06;97911.03;4991374;28;96835;-76
2024/01/04 01:14:29;;;;;;;3.45;1.40;;;;;;;10.78;62.79;97911.72;4988645;28;97194;-76
2024/01/04 01:16:55;;;;;;;1.63;1.27;;;;;;;10.80;62.73;97916.88;4988648;28;98054;-76
2024/01/04 01:19:20;;;;;;;1.92;1.08;;;;;;;10.86;62.57;97908.53;4993637;28;101342;-77
2024/01/04 01:21:46;;;;;;;2.55;1.30;;;;;;;10.77;63.00;97901.34;4976956;28;96780;-76
2024/01/04 01:24:11;;;;;;;1.95;1.20;;;;;;;10.73;63.25;97903.31;4976777;28;97023;-76
2024/01/04 01:26:37;;;;;;;4.03;1.63;;;;;;;10.77;62.89;97902.19;5005745;28;98395;-76
2024/01/04 01:29:02;;;;;;;3.90;1.90;;;;;;;10.75;62.96;97911.94;4990014;28;101149;-76
2024/01/04 01:31:28;;;;;;;2.72;1.33;;;;;;;10.82;63.05;97909.69;5006037;28;96834;-76
2024/01/04 01:33:54;;;;;;;2.15;1.40;;;;;;;10.81;63.33;97911.47;4993789;28;96693;-76
2024/01/04 01:36:19;;;;;;;3.05;1.10;;;;;;;10.65;63.29;97900.44;4975223;28;101401;-76
2024/01/04 01:38:46;;;;;;;3.85;1.20;;;;;;;10.74;63.91;97918.16;5002476;28;97615;-76
2024/01/04 01:41:11;;;;;;;1.67;1.10;;;;;;;10.67;63.88;97905.56;5017310;28;97266;-77
2024/01/04 01:43:37;;;;;;;3.63;1.50;;;;;;;10.73;63.89;97907.75;4982016;28;96839;-77
2024/01/04 01:46:03;;;;;;;3.17;1.30;;;;;;;10.71;63.61;97893.91;5008607;28;101597;-77
2024/01/04 01:48:28;;;;;;;2.20;1.17;;;;;;;10.79;63.56;97918.66;5014315;28;97297;-79
2024/01/04 01:50:54;;;;;;;1.85;1.10;;;;;;;10.69;63.74;97909.75;4997253;28;97135;-76
2024/01/04 01:53:20;;;;;;;2.88;1.45;;;;;;;10.73;63.71;97913.00;5023235;27;96930;-76
2024/01/04 01:55:46;;;;;;;2.58;1.10;;;;;;;10.75;63.42;97917.19;5031988;27;98046;-77
2024/01/04 01:58:12;;;;;;;3.20;1.55;;;;;;;10.62;64.04;97898.88;5001020;27;100856;-82
2024/01/04 02:00:38;;;;;;;3.70;1.73;;;;;;;10.55;63.87;97897.63;4998524;27;96735;-77
2024/01/04 02:03:05;;;;;;;3.90;1.80;;;;;;;10.71;63.61;97904.41;5016083;27;97405;-80
2024/01/04 02:05:31;;;;;;;3.50;1.90;;;;;;;10.74;63.82;97919.94;5013806;27;101099;-76
2024/01/04 02:07:57;;;;;;;2.97;1.52;;;;;;;10.61;64.01;97902.44;5012156;28;100875;-76
2024/01/04 02:10:22;;;;;;;3.13;1.20;;;;;;;10.71;63.48;97920.16;5027511;27;96790;-76
2024/01/04 02:12:48;;;;;;;3.05;1.70;;;;;;;10.70;63.47;97900.94;5019140;27;97988;-76
2024/01/04 02:15:14;;;;;;;3.60;1.40;;;;;;;10.80;63.55;97920.31;5027862;27;100977;-76
2024/01/04 02:17:40;;;;;;;2.05;1.35;;;;;;;10.87;63.67;97925.94;5030089;27;97736;-76
2024/01/04 02:20:06;;;;;;;3.22;1.20;;;;;;;10.80;63.72;97929.97;5005698;27;96758;-78
2024/01/04 02:22:34;;;;;;;3.92;1.70;;;;;;;10.75;63.57;97908.47;5032053;27;97019;-77
2024/01/04 02:25:00;;;;;;;1.92;1.05;;;;;;;10.70;64.32;97921.91;5028478;27;98191;-76
2024/01/04 02:27:26;;;;;;;2.25;1.40;;;;;;;10.73;64.26;97926.09;5015965;27;99243;-76
2024/01/04 02:29:51;;;;;;;2.78;1.20;;;;;;;10.81;64.03;97934.28;5015834;27;97914;-77
2024/01/04 02:32:17;;;;;;;3.42;1.58;;;;;;;10.74;64.42;97939.13;5016693;27;97416;-76
2024/01/04 02:34:42;;;;;;;2.03;1.05;;;;;;;10.69;65.33;97946.50;5013093;27;101409;-77
2024/01/04 02:37:08;;;;;;;4.60;2.00;;;;;;;10.60;66.21;97952.41;4998859;27;101030;-76
2024/01/04 02:39:33;;;;;;;1.70;0.98;;;;;;;10.60;66.27;97955.88;5018988;27;96785;-76
2024/01/04 02:41:59;;;;;;;3.92;1.38;;;;;;;10.51;66.87;97946.03;5017857;27;96779;-76
2024/01/04 02:44:24;;;;;;;3.53;1.35;;;;;;;10.39;67.50;97957.41;5049725;27;98561;-76
2024/01/04 02:46:50;;;;;;;2.05;1.10;;;;;;;10.30;68.28;97956.25;5030752;27;100961;-76
2024/01/04 02:49:15;;;;;;;3.25;1.50;;;;;;;10.32;67.91;97956.97;5025276;27;96779;-76
2024/01/04 02:51:41;;;;;;;2.78;1.23;;;;;;;10.30;68.36;97966.75;5014020;27;96876;-76
2024/01/04 02:54:07;;;;;;;2.25;0.90;;;;;;;10.23;68.99;97962.00;5019663;27;101495;-76
2024/01/04 02:56:33;;;;;;;1.50;1.05;;;;;;;10.20;69.24;97945.53;5044388;27;98094;-76
2024/01/04 02:58:59;;;;;;;3.80;1.00;;;;;;;10.14;69.19;97964.31;5014959;27;97788;-76
2024/01/04 03:01:24;;;;;;;1.65;0.80;;;;;;;10.17;69.04;97960.66;4999361;27;96872;-76
2024/01/04 03:03:55;;;;;;;1.33;0.70;;;;;;;10.26;68.92;97961.78;5032040;27;98030;-76
2024/01/04 03:06:22;;;;;;;2.33;0.90;;;;;;;10.17;68.47;97955.41;4997547;28;97461;-76
2024/01/04 03:08:48;;;;;;;1.73;0.70;;;;;;;10.08;68.56;97942.94;5015934;27;97306;-78
2024/01/04 03:11:13;;;;;;;1.65;0.70;;;;;;;10.17;68.48;97968.50;5030994;27;96893;-76
2024/01/04 03:13:39;;;;;;;0.70;0.60;;;;;;;10.11;68.54;97951.41;5010316;27;97399;-76
2024/01/04 03:16:05;;;;;;;1.33;0.90;;;;;;;10.09;68.88;97962.97;5023676;27;97677;-75
2024/01/04 03:18:30;;;;;;;2.03;1.02;;;;;;;10.09;68.76;97966.41;5019166;27;97247;-76
2024/01/04 03:20:55;;;;;;;1.35;0.90;;;;;;;10.06;69.19;97958.75;5029082;27;98051;-76
2024/01/04 03:23:21;;;;;;;1.38;0.88;;;;;;;10.07;69.45;97970.94;5029449;27;97568;-76
2024/01/04 03:25:47;;;;;;;1.38;0.88;;;;;;;10.12;69.63;97962.75;5041166;27;98498;-75
2024/01/04 03:28:12;;;;;;;1.52;0.90;;;;;;;10.23;69.14;97962.00;5027683;27;97399;-77
2024/01/04 03:30:37;;;;;;;4.03;0.85;;;;;;;10.10;69.21;97941.88;5033206;27;96915;-77
2024/01/04 03:33:03;;;;;;;3.17;0.80;;;;;;;10.36;68.86;97955.00;5017048;27;97460;-76
2024/01/04 03:35:28;;;;;;;1.35;0.80;;;;;;;10.42;69.01;97958.00;5018340;27;100859;-76
2024/01/04 03:37:54;;;;;;;1.20;0.65;;;;;;;10.40;69.34;97966.94;5039044;27;97663;-76
2024/01/04 03:40:19;;;;;;;1.50;0.80;;;;;;;10.37;69.26;97951.41;5017212;27;97321;-76
2024/01/04 03:42:45;;;;;;;1.30;0.80;;;;;;;10.48;68.86;97963.78;5018221;27;97550;-76
2024/01/04 03:45:10;;;;;;;1.40;0.77;;;;;;;10.39;69.42;97970.50;5001963;27;99024;-76
2024/01/04 03:47:36;;;;;;;1.52;0.70;;;;;;;10.46;69.00;97963.88;5018228;27;97473;-76
2024/01/04 03:50:05;;;;;;;2.20;1.13;;;;;;;10.39;69.43;97970.50;5015785;27;97236;-76
2024/01/04 03:52:31;;;;;;;0.77;0.73;;;;;;;10.33;69.30;97976.19;5013293;27;99835;-76
2024/01/04 03:54:56;;;;;;;3.35;1.33;;;;;;;10.29;68.90;97946.69;5025953;27;97635;-76
2024/01/04 03:57:21;;;;;;;1.52;0.90;;;;;;;10.31;68.86;97971.03;5044141;27;96782;-76
2024/01/04 03:59:47;;;;;;;2.35;1.15;;;;;;;10.34;69.18;97983.09;5013958;27;97135;-76
2024/01/04 04:02:13;;;;;;;1.52;1.00;;;;;;;10.46;68.76;97977.00;5029011;27;101318;-78
2024/01/04 04:04:38;;;;;;;2.25;1.10;;;;;;;10.42;69.10;97975.53;5025013;27;97397;-76
2024/01/04 04:07:04;;;;;;;2.58;0.93;;;;;;;10.38;68.52;97968.81;4994529;27;96762;-76
2024/01/04 04:09:29;;;;;;;2.75;1.00;;;;;;;10.14;68.52;97966.94;5005905;27;97104;-77
2024/01/04 04:11:55;;;;;;;1.08;0.90;;;;;;;10.24;67.94;97974.16;5015329;27;97648;-76
2024/01/04 04:14:21;;;;;;;2.88;1.08;;;;;;;10.29;67.71;97958.97;5018578;27;97408;-76
2024/01/04 04:16:46;;;;;;;4.85;1.45;;;;;;;10.31;67.96;97951.84;5009787;27;96795;-76
2024/01/04 04:19:12;;;;;;;2.78;1.20;;;;;;;10.32;67.68;97972.72;5031446;27;97148;-76
2024/01/04 04:21:37;;;;;;;2.58;1.10;;;;;;;10.22;67.84;97970.81;5011131;27;97762;-76
2024/01/04 04:24:03;;;;;;;1.85;1.00;;;;;;;10.20;68.02;97977.00;5018003;27;101045;-81
2024/01/04 04:26:29;;;;;;;1.63;0.95;;;;;;;10.20;67.38;97976.16;5019782;27;96891;-76
2024/01/04 04:28:55;;;;;;;2.20;1.10;;;;;;;10.16;67.49;97972.09;5053474;27;97173;-76
2024/01/04 04:31:20;;;;;;;2.22;1.23;;;;;;;10.07;67.26;97952.59;5018414;27;97826;-76
2024/01/04 04:33:47;;;;;;;1.50;1.00;;;;;;;10.22;67.13;97981.31;5040269;27;98743;-76
2024/01/04 04:36:13;;;;;;;1.27;0.90;;;;;;;10.13;67.25;97981.00;5015993;27;96812;-76
2024/01/04 04:38:39;;;;;;;2.15;1.02;;;;;;;10.00;67.16;97963.59;5017674;27;97391;-76
2024/01/04 04:41:05;;;;;;;1.20;0.80;;;;;;;10.06;67.44;97971.03;5017626;27;101260;-77
2024/01/04 04:43:34;;;;;;;2.33;1.20;;;;;;;10.23;67.16;97986.44;5028562;27;98026;-76
2024/01/04 04:46:08;;;;;;;1.92;0.95;;;;;;;10.16;67.30;97986.03;5000354;27;97290;-76
2024/01/04 04:48:34;;;;;;;3.10;1.30;;;;;;;10.07;67.73;97988.47;5015878;27;96797;-76
2024/01/04 04:50:59;;;;;;;3.97;1.02;;;;;;;10.03;67.76;97986.97;5018136;28;98397;-76
2024/01/04 04:53:25;;;;;;;2.55;1.00;;;;;;;10.01;67.29;97987.09;5028987;27;97312;-76
2024/01/04 04:55:50;;;;;;;1.70;0.95;;;;;;;10.03;67.71;97979.09;5030915;27;97094;-76
2024/01/04 04:58:16;;;;;;;1.45;1.00;;;;;;;10.11;67.79;97993.38;5029004;27;96863;-78
2024/01/04 05:00:41;;;;;;;1.48;0.95;;;;;;;10.06;67.78;97981.53;5027390;27;97332;-76
2024/01/04 05:03:07;;;;;;;2.00;1.10;;;;;;;10.28;67.33;98012.38;5002963;27;100849;-76
2024/01/04 05:05:33;;;;;;;1.98;1.00;;;;;;;10.23;67.60;97982.97;5032097;27;97092;-76
2024/01/04 05:07:58;;;;;;;1.88;1.05;;;;;;;10.20;68.02;98008.44;5031010;28;96918;-77
2024/01/04 05:10:24;;;;;;;1.42;0.93;;;;;;;10.23;68.20;97980.34;5027098;27;97483;-76
2024/01/04 05:12:49;;;;;;;1.52;1.05;;;;;;;10.33;67.58;97990.13;5025771;27;97472;-76
2024/01/04 05:15:15;;;;;;;3.47;1.33;;;;;;;10.27;67.58;98000.19;5030735;27;97104;-76
2024/01/04 05:17:40;;;;;;;3.58;1.55;;;;;;;10.08;68.21;97979.63;5032783;27;96765;-76
2024/01/04 05:20:06;;;;;;;1.70;0.95;;;;;;;10.22;67.84;97999.66;5011845;28;97513;-76
2024/01/04 05:22:32;;;;;;;0.75;0.70;;;;;;;10.18;67.68;97994.63;5030949;27;97366;-76
2024/01/04 05:24:58;;;;;;;1.30;0.88;;;;;;;10.22;67.61;98005.75;5020467;28;97059;-76
2024/01/04 05:27:23;;;;;;;5.60;0.80;;;;;;;10.28;67.49;97996.66;5027611;28;97514;-76
2024/01/04 05:29:49;;;;;;;1.73;0.98;;;;;;;10.29;67.16;97999.16;5016928;27;97544;-79
2024/01/04 05:32:14;;;;;;;2.53;1.00;;;;;;;10.34;67.38;97998.84;5008618;28;97252;-77
2024/01/04 05:34:42;;;;;;;3.75;1.00;;;;;;;10.39;67.03;98004.59;5010516;28;97314;-77
2024/01/04 05:37:07;;;;;;;1.70;1.05;;;;;;;10.32;67.33;98003.34;4982851;28;97043;-78
2024/01/04 05:39:33;;;;;;;2.67;0.98;;;;;;;10.28;66.74;97996.66;5001833;28;97515;-76
2024/01/04 05:41:59;;;;;;;2.63;1.05;;;;;;;10.22;67.50;98004.91;5023299;27;101922;-80
2024/01/04 05:44:24;;;;;;;1.58;0.90;;;;;;;10.32;67.21;98003.34;5014239;28;96929;-77
2024/01/04 05:46:50;;;;;;;2.15;1.15;;;;;;;10.38;66.91;98003.78;5014115;28;97244;-78
2024/01/04 05:49:15;;;;;;;1.48;1.00;;;;;;;10.22;67.06;97979.53;5024431;28;97464;-76
2024/01/04 05:51:41;;;;;;;2.00;1.10;;;;;;;10.32;67.21;98000.72;5001937;28;101232;-77
2024/01/04 05:54:06;;;;;;;3.40;1.65;;;;;;;10.22;66.83;98010.97;5017013;28;96777;-77
2024/01/04 05:56:32;;;;;;;3.63;1.60;;;;;;;10.30;66.98;98013.94;5012418;28;96879;-77
2024/01/04 05:58:57;;;;;;;3.30;1.35;;;;;;;10.30;66.66;98002.63;5025352;27;97349;-76
2024/01/04 06:01:23;;;;;;;3.17;1.10;;;;;;;10.39;66.19;98012.47;5018972;27;98538;-79
2024/01/04 06:03:48;;;;;;;2.55;1.20;;;;;;;10.28;66.57;98010.59;5022003;28;96721;-79
2024/01/04 06:06:15;;;;;;;3.63;1.23;;;;;;;10.32;66.35;98017.28;4994696;28;97393;-80
2024/01/04 06:08:43;;;;;;;2.38;1.42;;;;;;;10.43;66.37;98013.94;5006100;28;97624;-84
2024/01/04 06:11:09;;;;;;;2.15;1.05;;;;;;;10.36;66.56;98017.94;5012415;28;101864;-89
2024/01/04 06:13:35;;;;;;;5.68;1.75;;;;;;;10.27;66.48;98015.91;5012864;28;97285;-90
2024/01/04 06:16:07;;;;;;;2.38;1.30;;;;;;;10.28;66.55;98020.25;4994837;28;98143;-91
2024/01/04 06:18:33;;;;;;;2.60;1.25;;;;;;;10.20;66.99;98021.56;5008721;28;98654;-91
2024/01/04 06:20:59;;;;;;;2.13;1.60;;;;;;;10.25;66.99;98023.03;5012676;28;98175;-91
2024/01/04 06:23:25;;;;;;;2.40;1.15;;;;;;;10.29;66.87;98019.28;5004540;28;96905;-91
2024/01/04 06:25:50;;;;;;;1.67;1.00;;;;;;;10.33;66.54;98021.59;4991206;28;96875;-91
2024/01/04 06:28:16;;;;;;;2.35;1.10;;;;;;;10.22;66.73;98010.16;4978915;28;101206;-92
2024/01/04 06:30:41;;;;;;;2.25;1.05;;;;;;;10.28;66.39;98020.25;5017531;28;101221;-91
2024/01/04 06:33:07;;;;;;;2.83;1.45;;;;;;;10.24;66.68;98019.59;5023011;28;98261;-92
2024/01/04 06:35:32;;;;;;;4.25;0.90;;;;;;;10.32;66.28;98032.19;4995231;28;96944;-91
2024/01/04 06:37:58;;;;;;;3.67;1.85;;;;;;;10.30;66.20;98028.84;5008152;28;101203;-92
2024/01/04 06:40:23;;;;;;;2.70;1.30;;;;;;;10.36;66.47;98031.88;5030583;28;97946;-89
2024/01/04 06:42:55;;;;;;;5.03;2.08;;;;;;;10.42;65.75;98023.59;5013328;27;96838;-91
2024/01/04 06:45:24;;;;;;;7.70;4.03;;;;;;;10.43;65.88;98020.00;4993846;28;97269;-91
2024/01/04 06:47:50;;;;;;;7.57;3.33;;;;;;;10.54;65.60;98036.78;5012388;28;98923;-91
2024/01/04 06:50:15;;;;;;;6.75;3.17;;;;;;;10.42;65.21;98028.00;4991815;28;100629;-84
2024/01/04 06:52:41;;;;;;;8.18;3.05;;;;;;;10.46;65.71;98045.19;5012076;27;98050;-78
2024/01/04 06:55:07;;;;;;;6.80;3.08;;;;;;;10.47;65.50;98048.63;5011110;27;96796;-81
2024/01/04 06:57:32;;;;;;;5.90;1.98;;;;;;;10.43;65.18;98048.03;5009393;28;100917;-79
2024/01/04 06:59:58;;;;;;;4.88;1.65;;;;;;;10.25;65.79;98046.66;5017456;28;101329;-78
2024/01/04 07:02:23;;;;;;;5.68;2.30;;;;;;;10.33;65.71;98052.25;5035137;27;98075;-77
2024/01/04 07:04:49;;;;;;;3.22;1.90;;;;;;;10.25;65.80;98055.34;5014795;27;97368;-78
2024/01/04 07:07:14;;;;;;;6.65;2.88;;;;;;;10.12;66.36;98057.97;5035027;27;97694;-79
2024/01/04 07:09:40;;;;;;;5.80;2.78;;;;;;;10.02;65.79;98028.06;5025302;27;97405;-78
2024/01/04 07:12:06;;;;;;;6.78;3.38;;;;;;;10.01;65.54;98025.56;5021133;28;96767;-82
2024/01/04 07:14:32;;;;;;;9.32;3.80;;;;;;;10.01;65.74;98043.91;5016226;28;96769;-80
2024/01/04 07:16:57;;;;;;;8.73;3.53;;;;;;;9.97;66.14;98044.09;5007977;28;98966;-79
2024/01/04 07:19:23;;;;;;;7.38;3.50;;;;;;;10.05;65.88;98061.94;5009984;28;100175;-78
2024/01/04 07:21:49;;;;;;;7.30;3.55;;;;;;;10.06;65.90;98065.41;5018477;28;97164;-78
2024/01/04 07:24:16;;;;;;;8.95;3.35;;;;;;;9.96;65.92;98054.69;5008730;28;97801;-79
2024/01/04 07:26:41;;;;;;;7.93;3.25;;;;;;;10.02;65.83;98070.00;5014202;27;102189;-81
2024/01/04 07:29:07;;;;;;;7.72;4.25;;;;;;;10.12;65.89;98070.22;5022187;27;97789;-78
2024/01/04 07:31:32;;;;;;;5.55;2.83;;;;;;;10.11;65.69;98071.16;5015489;27;96804;-78
2024/01/04 07:33:59;;;;;;;5.20;2.38;;;;;;;9.90;65.63;98055.94;5013113;27;96865;-77
2024/01/04 07:36:25;;;;;;;9.15;2.85;;;;;;;10.06;65.46;98066.22;5018217;27;98002;-78
2024/01/04 07:38:50;;;;;;;3.63;2.22;;;;;;;10.03;65.63;98070.84;5021817;27;97408;-78
2024/01/04 07:41:16;;;;;;;3.88;2.00;;;;;;;10.00;65.78;98076.28;5023802;27;97056;-78
2024/01/04 07:43:41;;;;;;;6.40;1.77;;;;;;;10.05;65.71;98071.59;5004398;28;96936;-78
2024/01/04 07:46:07;;;;;;;3.50;2.08;;;;;;;10.07;65.38;98077.56;5025388;27;97460;-77
2024/01/04 07:48:32;;;;;;;4.00;1.85;;;;;;;10.07;65.03;98080.19;5017898;27;97401;-80
2024/01/04 07:50:59;;;;;;;2.92;1.90;;;;;;;10.15;65.11;98088.38;5018790;27;96788;-77
2024/01/04 07:53:24;;;;;;;11.85;2.95;;;;;;;10.09;65.29;98070.44;5025831;27;98611;-78
2024/01/04 07:55:50;;;;;;;5.25;2.20;;;;;;;9.95;65.54;98064.34;5028323;27;100065;-77
2024/01/04 07:58:15;;;;;;;5.57;2.72;;;;;;;10.17;65.11;98084.69;5009656;28;100860;-77
2024/01/04 08:00:41;;;;;;;6.70;3.75;;;;;;;10.12;65.39;98085.94;5004597;27;97289;-77
2024/01/04 08:03:07;;;;;;;6.05;3.20;;;;;;;10.30;64.50;98099.66;5022483;27;96928;-77
2024/01/04 08:05:32;;;;;;;5.32;2.60;;;;;;;10.18;64.87;98102.13;5047252;27;97372;-78
2024/01/04 08:07:58;;;;;;;8.00;3.15;;;;;;;10.07;65.06;98078.41;5009674;27;101135;-76
2024/01/04 08:10:23;;;;;;;6.97;3.08;;;;;;;10.18;65.72;98101.25;5017101;27;97332;-76
2024/01/04 08:12:49;;;;;;;6.20;2.22;;;;;;;9.93;65.78;98088.97;5046326;27;96836;-77
2024/01/04 08:15:15;;;;;;;4.88;2.60;;;;;;;10.00;65.26;98090.22;5043748;27;97923;-82
2024/01/04 08:17:40;;;;;;;3.55;2.00;;;;;;;9.93;66.36;98112.56;5009797;27;97284;-77
2024/01/04 08:20:06;;;;;;;6.20;2.30;;;;;;;10.01;66.30;98107.66;5018353;27;97066;-77
2024/01/04 08:22:32;;;;;;;3.83;2.30;;;;;;;10.03;66.65;98110.16;5035367;27;96777;-76
2024/01/04 08:24:57;;;;;;;3.35;1.90;;;;;;;9.87;67.16;98105.13;5019479;27;97603;-77
2024/01/04 08:27:23;;;;;;;3.88;2.13;;;;;;;9.73;67.25;98100.78;5026043;27;98066;-76
2024/01/04 08:29:49;;;;;;;7.72;1.92;;;;;;;9.81;67.63;98101.13;5014341;27;96774;-76
2024/01/04 08:32:16;;;;;;;5.47;1.67;;;;;;;9.68;67.47;98090.59;5032263;27;97222;-79
2024/01/04 08:34:42;;;;;;;3.67;1.75;;;;;;;9.70;67.23;98093.13;5016587;27;101058;-77
2024/01/04 08:37:08;;;;;;;2.67;1.50;;;;;;;9.82;67.26;98109.81;5020930;27;97337;-76
2024/01/04 08:39:33;;;;;;;3.38;1.17;;;;;;;9.77;67.20;98104.03;5038057;27;96894;-77
2024/01/04 08:41:59;;;;;;;2.63;1.42;;;;;;;9.70;67.04;98100.97;5014251;27;97082;-77
2024/01/04 08:44:25;;;;;;;2.28;1.35;;;;;;;9.73;67.19;98111.25;5020887;27;97958;-79
2024/01/04 08:46:51;;;;;;;3.60;1.30;;;;;;;9.69;67.07;98101.94;5027750;27;97352;-79
2024/01/04 08:49:17;;;;;;;2.20;1.48;;;;;;;9.64;67.51;98111.88;5012454;27;98476;-78
2024/01/04 08:51:42;;;;;;;2.40;1.30;;;;;;;9.66;68.24;98115.22;5026594;27;97524;-76
2024/01/04 08:54:08;;;;;;;1.98;0.98;;;;;;;9.62;68.92;98134.69;5026505;27;100905;-76
2024/01/04 08:56:35;;;;;;;2.25;1.13;;;;;;;9.75;68.72;98135.59;5013246;27;102578;-77
2024/01/04 08:59:02;;;;;;;2.70;1.23;;;;;;;9.70;68.97;98121.94;5043103;27;96770;-79
2024/01/04 09:01:28;;;;;;;1.80;1.08;;;;;;;9.79;68.86;98137.06;5027302;27;96847;-77
2024/01/04 09:03:57;;;;;;;2.90;1.50;;;;;;;9.71;68.59;98115.75;5043718;27;98092;-78
2024/01/04 09:06:23;;;;;;;4.40;2.20;;;;;;;9.93;68.65;98149.25;5011983;27;100631;-77
2024/01/04 09:08:51;;;;;;;3.58;2.00;;;;;;;9.83;68.43;98135.94;5026961;27;97547;-77
2024/01/04 09:11:16;;;;;;;3.67;1.73;;;;;;;9.96;67.96;98162.16;5023529;27;96852;-77
2024/01/04 09:13:45;;;;;;;3.17;1.45;;;;;;;9.70;68.46;98148.13;5027087;27;97960;-81
2024/01/04 09:16:11;;;;;;;1.17;0.90;;;;;;;9.83;68.44;98179.59;5011441;27;98092;-77
2024/01/04 09:18:37;;;;;;;3.28;1.30;;;;;;;9.82;68.65;98186.63;5027785;27;96792;-77
2024/01/04 09:21:02;;;;;;;1.52;1.05;;;;;;;9.65;68.87;98168.53;5041545;27;96794;-79
2024/01/04 09:23:28;;;;;;;1.30;0.82;;;;;;;9.72;69.53;98185.56;5012152;27;101295;-79
2024/01/04 09:25:53;;;;;;;2.28;1.20;;;;;;;9.53;70.00;98164.94;5041400;27;97982;-77
2024/01/04 09:28:22;;;;;;;1.98;1.33;;;;;;;9.66;69.86;98183.34;5025152;27;96829;-77
2024/01/04 09:30:47;;;;;;;2.42;1.38;;;;;;;9.60;70.22;98168.84;5004696;27;96968;-77
2024/01/04 09:33:15;;;;;;;4.57;1.75;;;;;;;9.67;69.93;98187.63;5028284;27;98304;-77
2024/01/04 09:35:41;;;;;;;6.63;1.77;;;;;;;9.68;70.02;98191.91;5021917;27;97451;-78
2024/01/04 09:38:06;;;;;;;2.88;1.63;;;;;;;9.62;69.87;98192.31;5014719;27;97488;-79
2024/01/04 09:40:32;;;;;;;4.22;1.88;;;;;;;9.69;70.00;98193.63;5011139;27;98323;-76
2024/01/04 09:42:58;;;;;;;3.75;1.88;;;;;;;9.46;70.00;98161.88;5043986;27;97705;-79
2024/01/04 09:45:24;;;;;;;2.60;1.27;;;;;;;9.73;70.09;98197.72;4996556;27;101689;-78
2024/01/04 09:47:50;;;;;;;3.08;1.52;;;;;;;9.71;69.99;98207.44;5009194;27;97362;-77
2024/01/04 09:50:16;;;;;;;2.63;1.20;;;;;;;9.65;70.21;98203.44;5023322;28;97259;-77
2024/01/04 09:52:46;;;;;;;4.00;1.63;;;;;;;9.47;69.72;98181.88;5029139;27;97543;-78
2024/01/04 09:55:12;;;;;;;2.22;1.02;;;;;;;9.60;69.38;98221.25;5020026;28;99161;-77
2024/01/04 09:57:38;;;;;;;3.17;1.02;;;;;;;9.35;69.29;98176.59;5009592;27;96798;-76
2024/01/04 10:00:08;;;;;;;1.15;0.70;;;;;;;9.48;68.56;98195.81;5009853;28;96904;-84
2024/01/04 10:02:41;;;;;;;1.48;0.80;;;;;;;9.65;67.73;98210.47;5009243;27;97903;-78
2024/01/04 10:05:10;;;;;;;1.48;0.80;;;;;;;9.59;67.87;98193.34;5041505;27;97404;-78
2024/01/04 10:07:38;;;;;;;1.60;1.08;;;;;;;9.81;67.83;98212.97;5022269;27;97602;-78
2024/01/04 10:10:13;;;;;;;5.95;3.85;;;;;;;9.69;66.90;98193.63;5009662;28;96809;-76
2024/01/04 10:12:40;;;;;;;3.08;1.90;;;;;;;9.78;66.53;98203.50;5012145;27;100944;-77
2024/01/04 10:15:08;;;;;;;1.75;1.13;;;;;;;9.71;66.79;98205.66;5029740;27;97358;-81
2024/01/04 10:17:34;;;;;;;1.65;0.93;;;;;;;9.71;66.99;98212.69;5009690;28;96842;-79
2024/01/04 10:20:01;;;;;;;2.70;1.30;;;;;;;9.68;66.91;98190.13;5023315;27;97420;-78
2024/01/04 10:22:27;;;;;;;2.22;1.23;;;;;;;9.77;66.24;98216.69;5013789;28;99419;-77
2024/01/04 10:24:54;;;;;;;3.67;1.10;;;;;;;9.63;66.27;98194.00;4996600;27;101315;-84
2024/01/04 10:27:20;;;;;;;3.50;0.68;;;;;;;9.78;66.04;98200.88;5035761;27;97917;-84
2024/01/04 10:29:48;;;;;;;2.20;0.80;;;;;;;9.92;66.31;98216.56;5016206;27;97427;-85
2024/01/04 10:32:14;;;;;;;0.93;0.70;;;;;;;9.95;65.92;98194.56;5038739;27;97530;-83
2024/01/04 10:34:41;;;;;;;3.30;1.00;;;;;;;10.05;66.05;98223.63;5023381;27;97852;-79
2024/01/04 10:37:12;;;;;;;1.80;1.40;;;;;;;10.04;65.62;98211.47;5012090;28;97497;-81
2024/01/04 10:39:39;;;;;;;3.00;1.63;;;;;;;10.12;65.74;98210.03;5031615;27;96836;-79
2024/01/04 10:42:05;;;;;;;1.92;0.93;;;;;;;10.11;65.69;98189.97;5007798;28;97530;-79
2024/01/04 10:44:34;;;;;;;2.08;1.00;;;;;;;10.30;65.23;98201.91;5016351;28;97632;-82
2024/01/04 10:47:01;;;;;;;2.55;1.15;;;;;;;10.41;64.93;98184.53;5003793;27;97666;-79
2024/01/04 10:49:27;;;;;;;2.05;1.05;;;;;;;10.71;64.40;98196.50;5015475;27;97370;-80
2024/01/04 10:51:57;;;;;;;1.98;0.90;;;;;;;10.95;64.14;98193.97;5003645;27;98033;-81
2024/01/04 10:54:37;;;;;;;2.10;1.00;;;;;;;11.03;63.04;98177.69;5029853;27;97604;-84
2024/01/04 10:57:03;;;;;;;2.35;1.10;;;;;;;11.16;62.73;98209.19;5025749;27;97463;-82
2024/01/04 10:59:29;;;;;;;2.17;1.00;;;;;;;11.12;62.54;98202.47;5030222;27;97398;-81
2024/01/04 11:01:56;;;;;;;1.45;1.02;;;;;;;10.77;62.44;98187.38;5007930;27;101068;-85
2024/01/04 11:04:22;;;;;;;3.25;1.55;;;;;;;10.72;62.75;98192.94;5020020;27;98032;-82
2024/01/04 11:06:49;;;;;;;1.35;1.00;;;;;;;10.82;62.87;98196.63;4996631;27;97165;-78
2024/01/04 11:09:17;;;;;;;2.67;1.50;;;;;;;10.82;62.85;98204.50;5030395;27;97227;-78
2024/01/04 11:11:44;;;;;;;2.72;1.40;;;;;;;10.67;63.02;98174.03;5026467;27;97718;-78
2024/01/04 11:14:09;;;;;;;3.70;1.40;;;;;;;10.60;62.82;98172.78;5049168;27;97813;-79
2024/01/04 11:16:43;;;;;;;1.25;0.90;;;;;;;10.79;62.51;98204.69;5028886;27;97241;-79
2024/01/04 11:19:44;;;;;;;1.70;1.27;;;;;;;10.51;62.64;98200.47;5031987;27;96761;-79
2024/01/04 11:22:44;;;;;;;4.28;1.73;;;;;;;10.37;63.28;98204.00;5016778;27;98168;-83
2024/01/04 11:25:15;;;;;;;3.55;1.27;;;;;;;10.50;63.35;98203.19;5000478;27;97799;-85
2024/01/04 11:27:41;;;;;;;1.67;1.10;;;;;;;10.45;63.42;98198.28;5009515;28;96853;-85
2024/01/04 11:30:08;;;;;;;5.10;1.67;;;;;;;10.11;63.34;98155.91;5013063;27;96885;-84